createdAt,value
2022-10-25T00:02:15.508Z,100600.19
2022-10-25T00:04:42.244Z,100602.31
2022-10-25T00:07:09.322Z,100608.06
2022-10-25T00:09:35.824Z,100607.34
2022-10-25T00:12:02.377Z,100609.97
2022-10-25T00:14:28.902Z,100613.78
2022-10-25T00:16:55.407Z,100611.63
2022-10-25T00:19:21.917Z,100613.25
2022-10-25T00:21:48.409Z,100607.38
2022-10-25T00:24:15.604Z,100613.25
2022-10-25T00:26:42.122Z,100608.06
2022-10-25T00:29:09.926Z,100603.75
2022-10-25T00:31:37.451Z,100609.97
2022-10-25T00:34:04.536Z,100619.75
2022-10-25T00:36:31.211Z,100608.22
2022-10-25T00:38:58.658Z,100614.34
2022-10-25T00:41:28.254Z,100611.75
2022-10-25T00:43:57.288Z,100610.91
2022-10-25T00:46:27.557Z,100615.31
2022-10-25T00:49:10.345Z,100621.38
2022-10-25T00:51:37.766Z,100619.69
2022-10-25T00:54:04.919Z,100614.44
2022-10-25T00:56:34.218Z,100620.41
2022-10-25T00:59:02.501Z,100615.13
2022-10-25T01:01:29.220Z,100605.38
2022-10-25T01:03:58.348Z,100613.72
2022-10-25T01:06:39.174Z,100619.56
2022-10-25T01:09:07.370Z,100615.44
2022-10-25T01:11:36.124Z,100612.72
2022-10-25T01:14:02.688Z,100615.28
2022-10-25T01:16:45.813Z,100620.78
2022-10-25T01:19:12.218Z,100614.72
2022-10-25T01:21:49.957Z,100611.03
2022-10-25T01:24:37.674Z,100613.69
2022-10-25T01:27:27.395Z,100615.50
2022-10-25T01:30:07.358Z,100613.72
2022-10-25T01:32:42.460Z,100605.28
2022-10-25T01:35:16.612Z,100612.09
2022-10-25T01:37:57.155Z,100614.66
2022-10-25T01:40:32.631Z,100609.41
2022-10-25T01:43:14.305Z,100605.13
2022-10-25T01:45:43.642Z,100618.28
2022-10-25T01:48:15.208Z,100609.56
2022-10-25T01:50:44.014Z,100619.22
2022-10-25T01:53:10.561Z,100617.53
2022-10-25T01:55:44.048Z,100617.63
2022-10-25T01:58:25.435Z,100623.59
2022-10-25T02:01:41.704Z,100622.69
2022-10-25T02:04:18.800Z,100623.38
2022-10-25T02:07:00.757Z,100621.06
2022-10-25T02:09:34.344Z,100628.03
2022-10-25T02:12:02.685Z,100620.25
2022-10-25T02:14:34.207Z,100615.88
2022-10-25T02:17:17.864Z,100613.22
2022-10-25T02:19:50.307Z,100620.25
2022-10-25T02:22:20.022Z,100621.19
2022-10-25T02:24:47.371Z,100621.16
2022-10-25T02:27:14.482Z,100604.44
2022-10-25T02:29:41.548Z,100615.91
2022-10-25T02:32:08.578Z,100616.81
2022-10-25T02:34:35.056Z,100624.56
2022-10-25T02:37:01.528Z,100627.28
2022-10-25T02:39:31.315Z,100616.63
2022-10-25T02:41:58.481Z,100615.88
2022-10-25T02:45:21.038Z,100620.13
2022-10-25T02:47:47.837Z,100622.59
2022-10-25T02:50:14.685Z,100622.00
2022-10-25T02:52:41.149Z,100616.53
2022-10-25T02:55:08.041Z,100620.28
2022-10-25T02:57:35.705Z,100621.13
2022-10-25T03:00:03.581Z,100627.00
2022-10-25T03:02:30.011Z,100624.34
2022-10-25T03:04:56.471Z,100624.47
2022-10-25T03:07:22.983Z,100627.19
2022-10-25T03:09:49.428Z,100634.03
2022-10-25T03:12:15.909Z,100632.16
2022-10-25T03:14:42.357Z,100646.00
2022-10-25T03:17:08.801Z,100640.09
2022-10-25T03:19:35.279Z,100643.66
2022-10-25T03:22:01.719Z,100646.91
2022-10-25T03:24:28.282Z,100649.88
2022-10-25T03:26:54.701Z,100648.88
2022-10-25T03:29:21.186Z,100653.16
2022-10-25T03:31:47.649Z,100658.28
2022-10-25T03:34:14.149Z,100651.31
2022-10-25T03:36:40.630Z,100651.25
2022-10-25T03:39:07.077Z,100656.78
2022-10-25T03:41:33.517Z,100658.16
2022-10-25T03:43:59.960Z,100660.91
2022-10-25T03:46:26.511Z,100664.38
2022-10-25T03:48:52.953Z,100665.31
2022-10-25T03:51:19.418Z,100660.25
2022-10-25T03:53:46.685Z,100668.72
2022-10-25T03:56:13.174Z,100671.34
2022-10-25T03:58:39.618Z,100663.53
2022-10-25T04:01:09.105Z,100672.19
2022-10-25T04:03:35.871Z,100677.50
2022-10-25T04:06:02.455Z,100677.56
2022-10-25T04:08:28.885Z,100670.66
2022-10-25T04:10:55.329Z,100677.34
2022-10-25T04:13:21.760Z,100684.34
2022-10-25T04:15:48.246Z,100686.06
2022-10-25T04:18:14.683Z,100677.38
2022-10-25T04:20:41.134Z,100677.16
2022-10-25T04:23:08.001Z,100672.94
2022-10-25T04:25:34.692Z,100678.19
2022-10-25T04:28:01.211Z,100678.91
2022-10-25T04:30:27.726Z,100673.88
2022-10-25T04:32:54.221Z,100676.25
2022-10-25T04:35:20.766Z,100673.16
2022-10-25T04:37:47.226Z,100679.19
2022-10-25T04:40:13.728Z,100679.91
2022-10-25T04:42:40.270Z,100676.75
2022-10-25T04:45:07.300Z,100675.84
2022-10-25T04:47:34.112Z,100680.97
2022-10-25T04:50:00.630Z,100678.31
2022-10-25T04:52:29.097Z,100680.81
2022-10-25T04:54:56.054Z,100677.31
2022-10-25T04:57:22.532Z,100678.28
2022-10-25T04:59:49.029Z,100685.97
2022-10-25T05:02:15.557Z,100681.81
2022-10-25T05:04:42.508Z,100684.28
2022-10-25T05:07:08.980Z,100671.03
2022-10-25T05:09:35.441Z,100688.00
2022-10-25T05:12:01.881Z,100688.72
2022-10-25T05:14:28.391Z,100682.63
2022-10-25T05:16:54.826Z,100681.66
2022-10-25T05:19:21.279Z,100691.44
2022-10-25T05:21:47.837Z,100693.88
2022-10-25T05:24:14.302Z,100690.09
2022-10-25T05:26:41.178Z,100688.53
2022-10-25T05:29:10.298Z,100697.47
2022-10-25T05:31:38.645Z,100700.22
2022-10-25T05:34:05.106Z,100701.97
2022-10-25T05:36:33.368Z,100709.78
2022-10-25T05:39:01.091Z,100697.75
2022-10-25T05:41:29.670Z,100699.28
2022-10-25T05:43:59.178Z,100702.72
2022-10-25T05:46:25.680Z,100701.91
2022-10-25T05:48:53.624Z,100706.19
2022-10-25T05:51:34.757Z,100713.28
2022-10-25T05:54:10.911Z,100719.28
2022-10-25T05:56:37.621Z,100713.97
2022-10-25T05:59:09.567Z,100716.72
2022-10-25T06:01:42.970Z,100717.50
2022-10-25T06:04:10.051Z,100718.50
2022-10-25T06:06:37.875Z,100723.75
2022-10-25T06:09:05.842Z,100723.72
2022-10-25T06:11:32.819Z,100734.22
2022-10-25T06:13:59.301Z,100739.47
2022-10-25T06:16:25.950Z,100731.69
2022-10-25T06:18:52.976Z,100745.53
2022-10-25T06:21:21.607Z,100750.66
2022-10-25T06:23:48.678Z,100748.19
2022-10-25T06:26:17.938Z,100753.19
2022-10-25T06:28:44.546Z,100764.44
2022-10-25T06:31:13.214Z,100756.13
2022-10-25T06:33:39.855Z,100769.13
2022-10-25T06:36:07.533Z,100765.75
2022-10-25T06:38:34.091Z,100775.94
2022-10-25T06:41:02.651Z,100772.50
2022-10-25T06:43:29.930Z,100783.03
2022-10-25T06:45:56.810Z,100784.75
2022-10-25T06:48:23.521Z,100786.53
2022-10-25T06:51:04.439Z,100789.28
2022-10-25T06:53:31.279Z,100791.03
2022-10-25T06:56:05.182Z,100796.22
2022-10-25T06:58:33.389Z,100806.41
2022-10-25T07:01:08.292Z,100799.78
2022-10-25T07:03:35.338Z,100806.47
2022-10-25T07:06:06.147Z,100802.84
2022-10-25T07:08:36.809Z,100807.53
2022-10-25T07:11:03.847Z,100812.78
2022-10-25T07:13:31.558Z,100816.06
2022-10-25T07:16:06.086Z,100818.69
2022-10-25T07:18:33.376Z,100820.41
2022-10-25T07:21:00.811Z,100822.19
2022-10-25T07:23:29.113Z,100833.00
2022-10-25T07:25:55.582Z,100830.97
2022-10-25T07:28:22.486Z,100823.81
2022-10-25T07:30:49.125Z,100827.63
2022-10-25T07:33:17.538Z,100826.34
2022-10-25T07:35:59.085Z,100823.94
2022-10-25T07:38:32.885Z,100824.16
2022-10-25T07:40:59.454Z,100829.91
2022-10-25T07:43:26.721Z,100838.81
2022-10-25T07:45:53.539Z,100845.03
2022-10-25T07:48:20.412Z,100843.19
2022-10-25T07:50:46.873Z,100849.94
2022-10-25T07:53:13.451Z,100852.00
2022-10-25T07:55:40.019Z,100855.34
2022-10-25T07:58:08.415Z,100848.53
2022-10-25T08:00:35.767Z,100857.19
2022-10-25T08:03:02.402Z,100862.41
2022-10-25T08:05:28.967Z,100862.50
2022-10-25T08:07:55.443Z,100863.16
2022-10-25T08:10:22.165Z,100857.72
2022-10-25T08:12:49.673Z,100850.97
2022-10-25T08:15:16.925Z,100865.69
2022-10-25T08:17:43.421Z,100857.75
2022-10-25T08:20:10.077Z,100865.56
2022-10-25T08:22:36.500Z,100868.88
2022-10-25T08:25:05.261Z,100874.44
2022-10-25T08:27:32.397Z,100867.59
2022-10-25T08:29:58.898Z,100870.19
2022-10-25T08:32:25.342Z,100878.00
2022-10-25T08:34:51.798Z,100876.94
2022-10-25T08:37:18.340Z,100881.81
2022-10-25T08:39:45.008Z,100888.59
2022-10-25T08:42:19.764Z,100892.91
2022-10-25T08:44:54.285Z,100891.31
2022-10-25T08:47:33.567Z,100902.47
2022-10-25T08:50:03.412Z,100892.72
2022-10-25T08:52:34.765Z,100900.47
2022-10-25T08:55:05.683Z,100908.63
2022-10-25T08:57:34.544Z,100907.97
2022-10-25T09:00:07.386Z,100905.75
2022-10-25T09:02:52.976Z,100913.03
2022-10-25T09:05:38.769Z,100923.28
2022-10-25T09:08:33.869Z,100921.69
2022-10-25T09:11:19.247Z,100928.56
2022-10-25T09:13:55.116Z,100921.16
2022-10-25T09:16:47.199Z,100926.88
2022-10-25T09:19:29.288Z,100936.31
2022-10-25T09:22:00.760Z,100940.59
2022-10-25T09:24:38.444Z,100935.25
2022-10-25T09:27:35.729Z,100938.88
2022-10-25T09:30:07.392Z,100945.59
2022-10-25T09:32:43.297Z,100941.25
2022-10-25T09:35:16.055Z,100945.94
2022-10-25T09:37:49.213Z,100938.13
2022-10-25T09:40:19.707Z,100952.41
2022-10-25T09:43:18.855Z,100958.09
2022-10-25T09:45:55.132Z,100966.50
2022-10-25T09:48:24.835Z,100954.09
2022-10-25T09:51:13.231Z,100955.94
2022-10-25T09:53:41.000Z,100955.94
2022-10-25T09:56:07.780Z,100965.06
2022-10-25T09:58:38.334Z,100962.59
2022-10-25T10:01:19.543Z,100965.47
2022-10-25T10:03:48.934Z,100964.66
2022-10-25T10:06:52.152Z,100969.31
2022-10-25T10:09:18.573Z,100971.91
2022-10-25T10:11:46.618Z,100975.59
2022-10-25T10:14:31.237Z,100974.75
2022-10-25T10:16:58.827Z,100976.53
2022-10-25T10:19:29.876Z,100983.72
2022-10-25T10:21:58.595Z,100977.16
2022-10-25T10:24:45.350Z,100979.09
2022-10-25T10:27:20.903Z,100982.56
2022-10-25T10:29:59.681Z,100984.97
2022-10-25T10:32:29.236Z,100979.72
2022-10-25T10:34:57.450Z,100991.22
2022-10-25T10:37:25.547Z,100982.19
2022-10-25T10:40:08.248Z,100994.84
2022-10-25T10:42:37.185Z,100999.28
2022-10-25T10:45:09.898Z,100993.94
2022-10-25T10:47:56.306Z,100993.28
2022-10-25T10:50:22.851Z,101003.94
2022-10-25T10:52:59.355Z,101013.34
2022-10-25T10:55:37.610Z,101000.03
2022-10-25T10:58:15.346Z,101004.75
2022-10-25T11:00:50.194Z,100997.00
2022-10-25T11:03:35.565Z,100994.97
2022-10-25T11:06:02.190Z,101008.94
2022-10-25T11:08:28.677Z,101011.31
2022-10-25T11:11:21.737Z,101006.34
2022-10-25T11:13:57.066Z,101004.63
2022-10-25T11:16:42.054Z,101019.59
2022-10-25T11:19:11.537Z,101019.22
2022-10-25T11:21:43.821Z,101019.13
2022-10-25T11:24:29.201Z,101018.63
2022-10-25T11:27:20.804Z,101019.56
2022-10-25T11:30:20.095Z,101023.03
2022-10-25T11:33:12.890Z,101030.88
2022-10-25T11:36:02.166Z,101031.19
2022-10-25T11:38:50.311Z,101036.03
2022-10-25T11:41:30.235Z,101034.88
2022-10-25T11:44:02.445Z,101036.19
2022-10-25T11:46:31.550Z,101032.81
2022-10-25T11:49:10.147Z,101039.94
2022-10-25T11:51:55.355Z,101050.72
2022-10-25T11:54:30.804Z,101046.03
2022-10-25T11:57:28.651Z,101043.56
2022-10-25T12:00:08.441Z,101039.44
2022-10-25T12:02:59.849Z,101042.16
2022-10-25T12:05:42.497Z,101048.97
2022-10-25T12:08:11.897Z,101052.59
2022-10-25T12:10:42.316Z,101056.03
2022-10-25T12:13:27.080Z,101055.16
2022-10-25T12:15:55.449Z,101056.72
2022-10-25T12:18:39.470Z,101065.72
2022-10-25T12:21:07.241Z,101067.19
2022-10-25T12:23:45.717Z,101064.88
2022-10-25T12:26:34.703Z,101071.50
2022-10-25T12:29:04.035Z,101069.84
2022-10-25T12:31:36.904Z,101066.53
2022-10-25T12:34:16.498Z,101070.13
2022-10-25T12:36:57.583Z,101069.69
2022-10-25T12:39:28.367Z,101077.66
2022-10-25T12:42:04.378Z,101084.41
2022-10-25T12:44:35.407Z,101077.75
2022-10-25T12:47:11.342Z,101079.13
2022-10-25T12:50:00.430Z,101078.09
2022-10-25T12:52:36.917Z,101076.22
2022-10-25T12:55:38.098Z,101085.88
2022-10-25T12:58:19.113Z,101081.41
2022-10-25T13:01:13.009Z,101079.81
2022-10-25T13:03:52.321Z,101089.66
2022-10-25T13:06:33.832Z,101075.50
2022-10-25T13:09:04.842Z,101074.50
2022-10-25T13:11:36.757Z,101074.28
2022-10-25T13:14:03.780Z,101071.91
2022-10-25T13:16:32.497Z,101078.09
2022-10-25T13:19:25.931Z,101095.97
2022-10-25T13:22:11.913Z,101090.03
2022-10-25T13:24:43.572Z,101098.03
2022-10-25T13:27:13.260Z,101093.91
2022-10-25T13:29:50.694Z,101091.81
2022-10-25T13:32:20.803Z,101091.78
2022-10-25T13:34:47.816Z,101091.06
2022-10-25T13:37:41.137Z,101104.78
2022-10-25T13:40:28.760Z,101105.94
2022-10-25T13:43:07.024Z,101095.09
2022-10-25T13:45:38.760Z,101109.84
2022-10-25T13:48:14.414Z,101119.50
2022-10-25T13:50:46.565Z,101114.63
2022-10-25T13:53:12.950Z,101117.88
2022-10-25T13:55:48.548Z,101124.06
2022-10-25T13:58:32.083Z,101122.16
2022-10-25T14:01:18.877Z,101129.41
2022-10-25T14:04:03.735Z,101129.28
2022-10-25T14:06:43.095Z,101132.03
2022-10-25T14:09:18.211Z,101130.47
2022-10-25T14:11:48.519Z,101123.16
2022-10-25T14:14:44.429Z,101130.97
2022-10-25T14:17:35.757Z,101135.56
2022-10-25T14:20:09.972Z,101142.50
2022-10-25T14:22:40.605Z,101136.91
2022-10-25T14:25:37.461Z,101142.38
2022-10-25T14:28:09.878Z,101141.50
2022-10-25T14:30:42.358Z,101135.47
2022-10-25T14:33:29.743Z,101138.13
2022-10-25T14:36:05.437Z,101131.22
2022-10-25T14:38:34.813Z,101136.38
2022-10-25T14:41:03.938Z,101127.28
2022-10-25T14:43:32.767Z,101132.13
2022-10-25T14:46:03.920Z,101131.16
2022-10-25T14:48:30.656Z,101120.38
2022-10-25T14:51:00.101Z,101124.56
2022-10-25T14:53:28.493Z,101125.91
2022-10-25T14:56:03.079Z,101125.84
2022-10-25T14:58:40.722Z,101126.44
2022-10-25T15:01:07.681Z,101138.59
2022-10-25T15:03:40.386Z,101135.38
2022-10-25T15:06:07.066Z,101132.69
2022-10-25T15:08:36.581Z,101129.25
2022-10-25T15:11:08.092Z,101130.13
2022-10-25T15:13:45.064Z,101136.72
2022-10-25T15:16:30.825Z,101131.75
2022-10-25T15:19:03.367Z,101138.00
2022-10-25T15:21:46.094Z,101138.66
2022-10-25T15:24:13.980Z,101142.22
2022-10-25T15:27:02.421Z,101139.03
2022-10-25T15:29:49.187Z,101133.47
2022-10-25T15:32:27.657Z,101141.31
2022-10-25T15:34:56.645Z,101138.72
2022-10-25T15:37:24.492Z,101138.81
2022-10-25T15:39:52.707Z,101137.09
2022-10-25T15:42:19.844Z,101151.19
2022-10-25T15:44:46.363Z,101149.28
2022-10-25T15:47:40.074Z,101151.22
2022-10-25T15:50:18.522Z,101141.63
2022-10-25T15:52:45.596Z,101148.66
2022-10-25T15:55:19.767Z,101150.69
2022-10-25T15:57:46.846Z,101157.56
2022-10-25T16:00:24.213Z,101152.41
2022-10-25T16:02:53.909Z,101155.00
2022-10-25T16:05:24.196Z,101152.28
2022-10-25T16:07:51.133Z,101155.97
2022-10-25T16:10:19.128Z,101151.53
2022-10-25T16:12:48.279Z,101158.53
2022-10-25T16:15:16.682Z,101153.22
2022-10-25T16:17:45.491Z,101158.56
2022-10-25T16:20:16.501Z,101171.75
2022-10-25T16:22:43.016Z,101176.09
2022-10-25T16:25:09.629Z,101177.03
2022-10-25T16:27:36.270Z,101181.41
2022-10-25T16:30:03.327Z,101186.56
2022-10-25T16:32:29.844Z,101185.75
2022-10-25T16:34:56.262Z,101182.22
2022-10-25T16:37:22.731Z,101175.25
2022-10-25T16:39:49.149Z,101184.91
2022-10-25T16:42:33.398Z,101180.53
2022-10-25T16:45:00.438Z,101191.03
2022-10-25T16:47:27.172Z,101191.97
2022-10-25T16:49:54.219Z,101184.97
2022-10-25T16:52:21.234Z,101190.19
2022-10-25T16:54:47.861Z,101200.66
2022-10-25T16:57:14.764Z,101199.81
2022-10-25T16:59:41.242Z,101198.09
2022-10-25T17:02:16.602Z,101199.81
2022-10-25T17:04:44.627Z,101193.66
2022-10-25T17:07:11.441Z,101198.94
2022-10-25T17:09:37.927Z,101199.84
2022-10-25T17:12:05.400Z,101205.06
2022-10-25T17:14:34.949Z,101206.00
2022-10-25T17:17:04.490Z,101209.47
2022-10-25T17:19:31.130Z,101210.38
2022-10-25T17:21:57.656Z,101213.00
2022-10-25T17:24:25.353Z,101214.75
2022-10-25T17:26:52.368Z,101218.25
2022-10-25T17:29:19.218Z,101220.88
2022-10-25T17:31:45.725Z,101211.25
2022-10-25T17:34:12.951Z,101211.25
2022-10-25T17:36:39.505Z,101220.00
2022-10-25T17:39:07.826Z,101212.13
2022-10-25T17:41:34.586Z,101219.13
2022-10-25T17:44:01.071Z,101221.75
2022-10-25T17:46:29.687Z,101223.47
2022-10-25T17:48:59.950Z,101225.25
2022-10-25T17:51:26.362Z,101226.13
2022-10-25T17:53:54.289Z,101223.50
2022-10-25T17:56:22.184Z,101230.53
2022-10-25T17:58:49.482Z,101237.50
2022-10-25T18:01:24.679Z,101233.13
2022-10-25T18:03:51.738Z,101231.38
2022-10-25T18:06:20.073Z,101232.28
2022-10-25T18:08:50.993Z,101229.66
2022-10-25T18:11:24.417Z,101230.50
2022-10-25T18:13:52.534Z,101234.03
2022-10-25T18:16:21.571Z,101239.22
2022-10-25T18:18:48.601Z,101246.22
2022-10-25T18:21:15.902Z,101246.22
2022-10-25T18:23:42.623Z,101247.97
2022-10-25T18:26:11.052Z,101243.56
2022-10-25T18:28:37.789Z,101247.91
2022-10-25T18:31:07.053Z,101246.25
2022-10-25T18:33:34.787Z,101250.56
2022-10-25T18:36:07.068Z,101237.47
2022-10-25T18:38:34.179Z,101249.75
2022-10-25T18:41:04.741Z,101244.44
2022-10-25T18:43:31.304Z,101247.03
2022-10-25T18:45:58.041Z,101254.97
2022-10-25T18:48:25.161Z,101255.78
2022-10-25T18:50:51.888Z,101256.63
2022-10-25T18:53:19.148Z,101256.63
2022-10-25T18:55:46.724Z,101257.50
2022-10-25T18:58:15.043Z,101259.25
2022-10-25T19:00:43.434Z,101261.91
2022-10-25T19:03:11.897Z,101254.03
2022-10-25T19:05:40.077Z,101254.94
2022-10-25T19:08:07.997Z,101256.66
2022-10-25T19:10:43.580Z,101257.59
2022-10-25T19:13:19.752Z,101254.97
2022-10-25T19:15:47.024Z,101247.94
2022-10-25T19:18:14.577Z,101242.69
2022-10-25T19:20:45.552Z,101258.38
2022-10-25T19:23:14.038Z,101247.97
2022-10-25T19:25:40.857Z,101249.72
2022-10-25T19:28:07.702Z,101256.78
2022-10-25T19:30:39.079Z,101252.38
2022-10-25T19:33:07.154Z,101256.75
2022-10-25T19:35:33.677Z,101261.16
2022-10-25T19:38:00.354Z,101254.97
2022-10-25T19:40:26.786Z,101252.34
2022-10-25T19:42:53.401Z,101247.97
2022-10-25T19:45:20.170Z,101258.44
2022-10-25T19:47:47.356Z,101263.69
2022-10-25T19:50:14.308Z,101266.28
2022-10-25T19:52:40.833Z,101249.63
2022-10-25T19:55:07.609Z,101253.19
2022-10-25T19:57:34.878Z,101259.31
2022-10-25T20:00:02.219Z,101254.91
2022-10-25T20:02:29.539Z,101261.00
2022-10-25T20:04:56.187Z,101260.19
2022-10-25T20:07:22.834Z,101249.69
2022-10-25T20:09:49.289Z,101262.75
2022-10-25T20:12:15.898Z,101267.13
2022-10-25T20:14:42.849Z,101276.81
2022-10-25T20:17:09.348Z,101268.03
2022-10-25T20:19:35.897Z,101267.13
2022-10-25T20:22:04.544Z,101269.69
2022-10-25T20:24:31.144Z,101270.56
2022-10-25T20:26:59.889Z,101276.69
2022-10-25T20:29:26.914Z,101274.09
2022-10-25T20:31:53.437Z,101281.00
2022-10-25T20:34:20.295Z,101277.38
2022-10-25T20:36:47.543Z,101287.13
2022-10-25T20:39:14.443Z,101285.41
2022-10-25T20:41:41.044Z,101287.09
2022-10-25T20:44:08.849Z,101284.50
2022-10-25T20:46:35.553Z,101283.56
2022-10-25T20:49:02.597Z,101285.25
2022-10-25T20:51:29.348Z,101287.84
2022-10-25T20:53:57.158Z,101283.44
2022-10-25T20:56:24.447Z,101287.03
2022-10-25T20:58:51.188Z,101293.06
2022-10-25T21:01:17.878Z,101290.47
2022-10-25T21:03:45.484Z,101289.63
2022-10-25T21:06:13.809Z,101287.91
2022-10-25T21:08:41.150Z,101287.94
2022-10-25T21:11:10.202Z,101289.72
2022-10-25T21:13:37.325Z,101292.34
2022-10-25T21:16:13.964Z,101290.56
2022-10-25T21:18:41.096Z,101298.50
2022-10-25T21:21:10.750Z,101294.84
2022-10-25T21:23:38.182Z,101290.56
2022-10-25T21:26:07.269Z,101290.50
2022-10-25T21:28:36.403Z,101302.69
2022-10-25T21:31:05.785Z,101294.66
2022-10-25T21:33:32.525Z,101296.59
2022-10-25T21:36:06.168Z,101298.44
2022-10-25T21:38:32.677Z,101295.78
2022-10-25T21:41:28.456Z,101293.00
2022-10-25T21:43:56.159Z,101302.75
2022-10-25T21:46:24.139Z,101300.09
2022-10-25T21:48:51.186Z,101310.50
2022-10-25T21:51:19.625Z,101311.22
2022-10-25T21:53:47.688Z,101301.75
2022-10-25T21:56:16.661Z,101315.78
2022-10-25T21:58:44.801Z,101312.25
2022-10-25T22:01:14.461Z,101313.91
2022-10-25T22:03:41.476Z,101318.19
2022-10-25T22:06:09.400Z,101315.59
2022-10-25T22:08:35.945Z,101323.47
2022-10-25T22:11:07.647Z,101334.84
2022-10-25T22:13:34.400Z,101326.16
2022-10-25T22:16:04.730Z,101321.91
2022-10-25T22:18:31.435Z,101326.09
2022-10-25T22:21:00.917Z,101322.81
2022-10-25T22:23:29.069Z,101324.34
2022-10-25T22:25:58.947Z,101328.75
2022-10-25T22:28:25.429Z,101323.47
2022-10-25T22:31:06.201Z,101331.22
2022-10-25T22:33:33.192Z,101326.84
2022-10-25T22:36:13.529Z,101326.91
2022-10-25T22:38:40.463Z,101330.25
2022-10-25T22:41:15.973Z,101326.78
2022-10-25T22:43:42.789Z,101326.69
2022-10-25T22:46:18.120Z,101323.47
2022-10-25T22:48:44.806Z,101335.47
2022-10-25T22:51:12.176Z,101342.56
2022-10-25T22:53:39.528Z,101333.84
2022-10-25T22:56:09.698Z,101332.88
2022-10-25T22:58:36.567Z,101337.28
2022-10-25T23:01:06.186Z,101332.25
2022-10-25T23:03:33.561Z,101335.44
2022-10-25T23:06:01.065Z,101334.69
2022-10-25T23:08:28.298Z,101346.06
2022-10-25T23:11:14.747Z,101333.06
2022-10-25T23:13:42.055Z,101344.38
2022-10-25T23:16:09.393Z,101336.41
2022-10-25T23:18:36.043Z,101334.41
2022-10-25T23:21:03.929Z,101336.38
2022-10-25T23:23:34.113Z,101332.16
2022-10-25T23:26:01.153Z,101327.69
2022-10-25T23:28:30.184Z,101333.78
2022-10-25T23:30:56.710Z,101332.78
2022-10-25T23:33:23.145Z,101330.38
2022-10-25T23:35:49.607Z,101338.06
2022-10-25T23:38:16.058Z,101328.31
2022-10-25T23:40:46.846Z,101329.16
2022-10-25T23:43:13.421Z,101331.94
2022-10-25T23:45:41.958Z,101323.16
2022-10-25T23:48:08.426Z,101323.16
2022-10-25T23:50:34.870Z,101324.06
2022-10-25T23:53:01.396Z,101327.59
2022-10-25T23:55:27.840Z,101329.19
2022-10-25T23:57:57.851Z,101323.19
